createdAt,value
2022-10-10T00:01:31.201Z,89.77
2022-10-10T00:06:33.362Z,90.11
2022-10-10T00:11:31.006Z,90.22
2022-10-10T00:16:30.932Z,90.16
2022-10-10T00:21:30.871Z,90.36
2022-10-10T00:26:30.798Z,90.71
2022-10-10T00:31:30.736Z,90.92
2022-10-10T00:36:30.666Z,91.27
2022-10-10T00:41:30.614Z,91.38
2022-10-10T00:46:30.529Z,91.58
2022-10-10T00:51:30.480Z,91.79
2022-10-10T00:56:30.396Z,92.51
2022-10-10T01:01:30.347Z,92.30
2022-10-10T01:06:30.262Z,92.61
2022-10-10T01:11:30.214Z,93.02
2022-10-10T01:16:30.129Z,92.51
2022-10-10T01:21:30.069Z,92.46
2022-10-10T01:26:29.999Z,92.26
2022-10-10T01:31:29.939Z,92.26
2022-10-10T01:36:29.863Z,92.05
2022-10-10T01:41:29.804Z,91.17
2022-10-10T01:46:29.734Z,92.10
2022-10-10T01:51:29.673Z,92.51
2022-10-10T01:56:29.596Z,92.92
2022-10-10T02:01:29.540Z,92.61
2022-10-10T02:06:29.514Z,93.39
2022-10-10T02:11:29.571Z,93.70
2022-10-10T02:16:29.635Z,93.04
2022-10-10T02:21:29.625Z,92.38
2022-10-10T02:26:29.599Z,92.13
2022-10-10T02:31:29.642Z,91.51
2022-10-10T02:36:29.068Z,91.06
2022-10-10T02:41:29.011Z,91.06
2022-10-10T02:46:28.946Z,90.55
2022-10-10T02:51:30.496Z,89.78
2022-10-10T02:56:28.812Z,89.89
2022-10-10T03:01:28.837Z,90.19
2022-10-10T03:06:28.679Z,90.91
2022-10-10T03:11:28.612Z,89.78
2022-10-10T03:16:28.545Z,90.09
2022-10-10T03:21:28.477Z,90.09
2022-10-10T03:26:28.402Z,90.30
2022-10-10T03:31:28.342Z,90.30
2022-10-10T03:36:28.312Z,90.40
2022-10-10T03:41:28.221Z,90.65
2022-10-10T03:46:28.162Z,90.30
2022-10-10T03:51:28.088Z,89.89
2022-10-10T03:56:28.031Z,89.68
2022-10-10T04:01:28.031Z,89.58
2022-10-10T04:06:27.896Z,89.89
2022-10-10T04:11:27.822Z,90.19
2022-10-10T04:16:27.761Z,90.65
2022-10-10T04:21:27.687Z,91.06
2022-10-10T04:26:27.628Z,91.27
2022-10-10T04:31:27.554Z,92.03
2022-10-10T04:36:27.494Z,91.72
2022-10-10T04:41:27.429Z,91.61
2022-10-10T04:46:27.356Z,91.76
2022-10-10T04:51:27.295Z,92.07
2022-10-10T04:56:27.222Z,92.12
2022-10-10T05:01:27.205Z,92.12
2022-10-10T05:06:27.089Z,92.67
2022-10-10T05:11:27.030Z,93.29
2022-10-10T05:16:26.957Z,94.07
2022-10-10T05:21:26.896Z,93.87
2022-10-10T05:26:26.827Z,92.98
2022-10-10T05:31:26.766Z,93.09
2022-10-10T05:36:26.697Z,93.39
2022-10-10T05:41:26.632Z,93.09
2022-10-10T05:46:26.559Z,93.09
2022-10-10T05:51:26.502Z,94.13
2022-10-10T05:56:26.425Z,93.26
2022-10-10T06:01:26.368Z,91.84
2022-10-10T06:06:26.296Z,90.46
2022-10-10T06:11:26.235Z,89.91
2022-10-10T06:16:26.158Z,89.56
2022-10-10T06:21:26.100Z,88.28
2022-10-10T06:26:26.025Z,87.07
2022-10-10T06:31:25.967Z,85.19
2022-10-10T06:36:25.898Z,82.37
2022-10-10T06:41:25.834Z,80.62
2022-10-10T06:46:25.763Z,76.39
2022-10-10T06:51:25.705Z,75.33
2022-10-10T06:56:27.832Z,76.49
2022-10-10T07:01:25.632Z,70.61
2022-10-10T07:06:25.495Z,65.99
2022-10-10T07:11:25.436Z,63.06
2022-10-10T07:16:25.362Z,61.56
2022-10-10T07:21:25.303Z,59.96
2022-10-10T07:26:25.228Z,58.52
2022-10-10T07:31:25.170Z,57.65
2022-10-10T07:36:25.097Z,56.09
2022-10-10T07:41:25.044Z,55.00
2022-10-10T07:46:24.962Z,53.34
2022-10-10T07:51:24.903Z,52.84
2022-10-10T07:56:24.827Z,52.59
2022-10-10T08:01:24.820Z,51.01
2022-10-10T08:06:24.695Z,49.38
2022-10-10T08:11:24.633Z,48.76
2022-10-10T08:16:24.565Z,48.84
2022-10-10T08:21:24.500Z,48.61
2022-10-10T08:26:24.423Z,48.69
2022-10-10T08:31:24.365Z,47.20
2022-10-10T08:36:24.296Z,46.90
2022-10-10T08:41:24.240Z,46.86
2022-10-10T08:46:24.160Z,47.79
2022-10-10T08:51:24.104Z,49.11
2022-10-10T08:56:24.030Z,49.04
2022-10-10T09:01:27.940Z,48.91
2022-10-10T09:06:23.894Z,48.66
2022-10-10T09:11:23.840Z,48.04
2022-10-10T09:16:23.766Z,48.42
2022-10-10T09:21:23.709Z,47.30
2022-10-10T09:26:23.639Z,47.50
2022-10-10T09:31:23.581Z,47.20
2022-10-10T09:36:23.516Z,47.57
2022-10-10T09:41:23.453Z,47.77
2022-10-10T09:46:23.382Z,46.96
2022-10-10T09:51:23.323Z,46.93
2022-10-10T09:56:23.251Z,47.15
2022-10-10T10:01:23.254Z,47.43
2022-10-10T10:06:23.113Z,46.53
2022-10-10T10:11:23.057Z,46.71
2022-10-10T10:16:22.986Z,46.07
2022-10-10T10:21:22.931Z,46.17
2022-10-10T10:26:22.861Z,45.99
2022-10-10T10:31:22.802Z,45.92
2022-10-10T10:36:22.727Z,45.23
2022-10-10T10:41:22.671Z,45.72
2022-10-10T10:46:22.595Z,45.77
2022-10-10T10:51:22.541Z,46.47
2022-10-10T10:56:22.550Z,47.61
2022-10-10T11:01:38.594Z,47.63
2022-10-10T11:06:23.534Z,49.15
2022-10-10T11:11:22.274Z,50.59
2022-10-10T11:16:43.929Z,49.92
2022-10-10T11:21:23.167Z,49.47
2022-10-10T11:26:22.068Z,51.01
2022-10-10T11:31:22.008Z,51.64
2022-10-10T11:36:21.934Z,53.32
2022-10-10T11:41:21.882Z,54.07
2022-10-10T11:46:21.803Z,55.99
2022-10-10T11:51:21.741Z,56.70
2022-10-10T11:56:21.669Z,56.32
2022-10-10T12:01:21.609Z,57.85
2022-10-10T12:06:21.555Z,57.58
2022-10-10T12:11:21.470Z,57.88
2022-10-10T12:16:21.393Z,58.91
2022-10-10T12:21:21.394Z,58.91
2022-10-10T12:26:21.265Z,59.04
2022-10-10T12:31:21.195Z,59.64
2022-10-10T12:36:21.120Z,60.38
2022-10-10T12:41:21.069Z,60.47
2022-10-10T12:46:20.980Z,60.27
2022-10-10T12:51:20.925Z,61.48
2022-10-10T12:56:20.848Z,61.68
2022-10-10T13:01:20.842Z,61.68
2022-10-10T13:06:20.744Z,61.78
2022-10-10T13:11:20.655Z,61.78
2022-10-10T13:16:20.592Z,61.58
2022-10-10T13:21:20.525Z,61.88
2022-10-10T13:26:20.452Z,62.18
2022-10-10T13:31:20.404Z,62.18
2022-10-10T13:36:20.347Z,62.59
2022-10-10T13:41:20.265Z,62.59
2022-10-10T13:46:20.195Z,62.79
2022-10-10T13:51:20.138Z,62.39
2022-10-10T13:56:20.063Z,63.22
2022-10-10T14:01:20.064Z,63.92
2022-10-10T14:06:19.940Z,63.39
2022-10-10T14:11:19.874Z,62.81
2022-10-10T14:16:20.148Z,64.22
2022-10-10T14:21:19.743Z,63.92
2022-10-10T14:26:19.675Z,63.72
2022-10-10T14:31:19.614Z,64.02
2022-10-10T14:36:19.543Z,64.42
2022-10-10T14:41:19.484Z,64.92
2022-10-10T14:46:19.411Z,65.53
2022-10-10T14:51:33.768Z,65.43
2022-10-10T14:56:20.313Z,65.13
2022-10-10T15:01:19.223Z,65.03
2022-10-10T15:06:19.157Z,65.33
2022-10-10T15:11:19.094Z,65.66
2022-10-10T15:16:19.025Z,65.76
2022-10-10T15:21:18.967Z,65.86
2022-10-10T15:26:18.904Z,66.50
2022-10-10T15:31:18.838Z,67.30
2022-10-10T15:36:19.389Z,67.34
2022-10-10T15:41:18.709Z,67.84
2022-10-10T15:46:18.636Z,68.34
2022-10-10T15:51:18.574Z,68.98
2022-10-10T15:56:18.507Z,69.48
2022-10-10T16:01:18.500Z,70.12
2022-10-10T16:06:18.371Z,70.52
2022-10-10T16:11:18.310Z,71.06
2022-10-10T16:16:18.233Z,71.36
2022-10-10T16:21:18.173Z,71.90
2022-10-10T16:26:18.098Z,72.44
2022-10-10T16:31:18.039Z,72.37
2022-10-10T16:36:17.963Z,72.57
2022-10-10T16:41:35.571Z,73.21
2022-10-10T16:46:18.858Z,73.62
2022-10-10T16:51:17.769Z,74.46
2022-10-10T16:56:17.696Z,75.00
2022-10-10T17:01:17.718Z,75.40
2022-10-10T17:06:17.561Z,75.71
2022-10-10T17:11:17.500Z,76.04
2022-10-10T17:21:18.395Z,77.30
2022-10-10T17:26:17.293Z,77.70
2022-10-10T17:31:17.235Z,78.04
2022-10-10T17:36:17.160Z,78.35
2022-10-10T17:41:17.101Z,78.89
2022-10-10T17:51:18.968Z,79.40
2022-10-10T17:56:16.897Z,79.43
2022-10-10T18:01:16.909Z,79.54
2022-10-10T18:06:16.763Z,79.63
2022-10-10T18:11:16.707Z,79.63
2022-10-10T18:16:16.629Z,79.74
2022-10-10T18:21:16.572Z,80.14
2022-10-10T18:26:16.501Z,81.09
2022-10-10T18:31:16.441Z,81.64
2022-10-10T18:36:16.370Z,81.47
2022-10-10T18:41:16.308Z,81.68
2022-10-10T18:46:16.232Z,81.98
2022-10-10T18:51:16.173Z,82.33
2022-10-10T18:56:16.100Z,82.63
2022-10-10T19:01:16.593Z,83.14
2022-10-10T19:06:15.966Z,83.54
2022-10-10T19:11:15.907Z,83.89
2022-10-10T19:16:15.829Z,84.39
2022-10-10T19:21:15.766Z,84.80
2022-10-10T19:26:15.709Z,84.90
2022-10-10T19:31:15.629Z,85.10
2022-10-10T19:36:15.553Z,85.10
2022-10-10T19:41:15.493Z,84.96
2022-10-10T19:46:15.528Z,84.86
2022-10-10T19:51:15.356Z,84.56
2022-10-10T19:56:15.279Z,84.46
2022-10-10T20:01:15.440Z,84.35
2022-10-10T20:06:15.144Z,84.15
2022-10-10T20:11:15.081Z,83.95
2022-10-10T20:16:15.007Z,83.95
2022-10-10T20:21:16.657Z,83.95
2022-10-10T20:26:14.870Z,83.64
2022-10-10T20:31:14.806Z,83.64
2022-10-10T20:36:14.734Z,83.75
2022-10-10T20:41:14.673Z,83.85
2022-10-10T20:46:14.593Z,83.89
2022-10-10T20:51:14.537Z,83.78
2022-10-10T20:56:14.458Z,83.99
2022-10-10T21:01:14.471Z,84.23
2022-10-10T21:06:14.318Z,84.23
2022-10-10T21:11:14.258Z,84.39
2022-10-10T21:16:14.185Z,84.19
2022-10-10T21:21:14.122Z,84.19
2022-10-10T21:26:14.045Z,84.09
2022-10-10T21:31:13.987Z,83.89
2022-10-10T21:36:13.910Z,83.78
2022-10-10T21:41:13.848Z,83.78
2022-10-10T21:46:13.777Z,84.09
2022-10-10T21:51:13.713Z,83.99
2022-10-10T21:56:13.646Z,83.85
2022-10-10T22:01:13.703Z,83.44
2022-10-10T22:06:13.499Z,83.23
2022-10-10T22:11:13.439Z,83.23
2022-10-10T22:16:13.362Z,83.23
2022-10-10T22:21:13.306Z,83.34
2022-10-10T22:26:13.225Z,83.54
2022-10-10T22:31:13.165Z,83.44
2022-10-10T22:36:13.089Z,83.44
2022-10-10T22:41:13.029Z,83.03
2022-10-10T22:46:12.951Z,82.42
2022-10-10T22:51:12.894Z,81.92
2022-10-10T22:56:12.816Z,81.82
2022-10-10T23:01:12.784Z,81.71
2022-10-10T23:06:12.682Z,81.82
2022-10-10T23:11:12.620Z,82.12
2022-10-10T23:16:12.545Z,82.36
2022-10-10T23:21:12.484Z,82.36
2022-10-10T23:26:12.407Z,82.36
2022-10-10T23:31:12.354Z,82.50
2022-10-10T23:36:12.276Z,83.22
2022-10-10T23:41:12.220Z,83.56
2022-10-10T23:46:12.187Z,84.37
2022-10-10T23:51:12.097Z,85.02
2022-10-10T23:56:12.020Z,85.53
